sim
Sign-in with your pilot id or email,
or register
Callsign
Passwort

Schedule Details

Flight Number: DLH1948
Departure: Munich Airport (EDDM) at 10:30
Arrival: Genoa Cristoforo Colombo Airport (LIMJ) at 11:40
Route: Lufthansa Passenger Schedule. Enter filed route here before submitting Pirep.

Weather Information
Getting current METAR information for EDDM 181220Z 09012KT 040V120 CAVOK 19/09 Q1024 NOSIG
Getting current METAR information for LIMJ 181220Z 19006KT CAVOK 28/18 Q1018

Schedule Frequency

Route Map